sensor_id;sensor_type;location;lat;lon;timestamp;pressure;altitude;pressure_sealevel;temperature;humidity
78210;BME280;67485;48.816;9.930;2024-01-07T00:01:48;96198.47;;;3.04;100.00
78210;BME280;67485;48.816;9.930;2024-01-07T00:04:15;96195.88;;;3.05;100.00
78210;BME280;67485;48.816;9.930;2024-01-07T00:06:41;96187.25;;;3.06;100.00
78210;BME280;67485;48.816;9.930;2024-01-07T00:09:07;96188.97;;;3.07;100.00
78210;BME280;67485;48.816;9.930;2024-01-07T00:11:32;96195.00;;;3.11;100.00
78210;BME280;67485;48.816;9.930;2024-01-07T00:13:58;96199.31;;;3.11;100.00
78210;BME280;67485;48.816;9.930;2024-01-07T00:16:23;96200.16;;;3.13;100.00
78210;BME280;67485;48.816;9.930;2024-01-07T00:18:49;96201.91;;;3.11;100.00
78210;BME280;67485;48.816;9.930;2024-01-07T00:21:15;96205.38;;;3.06;100.00
78210;BME280;67485;48.816;9.930;2024-01-07T00:23:40;96202.78;;;3.06;100.00
78210;BME280;67485;48.816;9.930;2024-01-07T00:26:07;96211.41;;;3.05;100.00
78210;BME280;67485;48.816;9.930;2024-01-07T00:28:33;96213.13;;;3.06;100.00
78210;BME280;67485;48.816;9.930;2024-01-07T00:30:58;96202.78;;;3.06;100.00
78210;BME280;67485;48.816;9.930;2024-01-07T00:33:24;96201.00;;;3.12;100.00
78210;BME280;67485;48.816;9.930;2024-01-07T00:35:50;96206.22;;;3.10;100.00
78210;BME280;67485;48.816;9.930;2024-01-07T00:38:16;96203.59;;;3.15;100.00
78210;BME280;67485;48.816;9.930;2024-01-07T00:40:42;96209.63;;;3.18;100.00
78210;BME280;67485;48.816;9.930;2024-01-07T00:43:07;96200.97;;;3.21;100.00
78210;BME280;67485;48.816;9.930;2024-01-07T00:45:33;96197.56;;;3.13;100.00
78210;BME280;67485;48.816;9.930;2024-01-07T00:47:58;96203.63;;;3.08;100.00
78210;BME280;67485;48.816;9.930;2024-01-07T00:50:24;96206.22;;;3.05;100.00
78210;BME280;67485;48.816;9.930;2024-01-07T00:52:50;96211.41;;;3.05;100.00
78210;BME280;67485;48.816;9.930;2024-01-07T00:55:17;96202.78;;;3.10;100.00
78210;BME280;67485;48.816;9.930;2024-01-07T00:57:42;96207.06;;;3.09;100.00
78210;BME280;67485;48.816;9.930;2024-01-07T01:00:08;96210.53;;;3.10;100.00
78210;BME280;67485;48.816;9.930;2024-01-07T01:02:34;96207.97;;;3.10;100.00
78210;BME280;67485;48.816;9.930;2024-01-07T01:05:01;96223.50;;;3.10;100.00
78210;BME280;67485;48.816;9.930;2024-01-07T01:07:27;96214.84;;;3.11;100.00
78210;BME280;67485;48.816;9.930;2024-01-07T01:09:53;96210.53;;;3.11;100.00
78210;BME280;67485;48.816;9.930;2024-01-07T01:12:18;96218.31;;;3.10;100.00
78210;BME280;67485;48.816;9.930;2024-01-07T01:14:44;96214.00;;;3.08;100.00
78210;BME280;67485;48.816;9.930;2024-01-07T01:17:10;96220.88;;;3.11;100.00
78210;BME280;67485;48.816;9.930;2024-01-07T01:19:35;96216.53;;;3.15;100.00
78210;BME280;67485;48.816;9.930;2024-01-07T01:22:01;96224.31;;;3.13;100.00
78210;BME280;67485;48.816;9.930;2024-01-07T01:24:27;96224.31;;;3.13;100.00
78210;BME280;67485;48.816;9.930;2024-01-07T01:26:53;96213.09;;;3.13;100.00
78210;BME280;67485;48.816;9.930;2024-01-07T01:29:18;96226.03;;;3.14;100.00
78210;BME280;67485;48.816;9.930;2024-01-07T01:31:44;96226.91;;;3.12;100.00
78210;BME280;67485;48.816;9.930;2024-01-07T01:34:10;96219.09;;;3.18;100.00
78210;BME280;67485;48.816;9.930;2024-01-07T01:36:35;96221.72;;;3.12;100.00
78210;BME280;67485;48.816;9.930;2024-01-07T01:39:01;96225.19;;;3.09;100.00
78210;BME280;67485;48.816;9.930;2024-01-07T01:41:28;96220.03;;;3.11;100.00
78210;BME280;67485;48.816;9.930;2024-01-07T01:43:57;96230.41;;;3.07;100.00
78210;BME280;67485;48.816;9.930;2024-01-07T01:46:24;96220.06;;;3.01;100.00
78210;BME280;67485;48.816;9.930;2024-01-07T01:48:50;96220.06;;;3.01;100.00
78210;BME280;67485;48.816;9.930;2024-01-07T01:51:17;96223.53;;;3.03;100.00
78210;BME280;67485;48.816;9.930;2024-01-07T01:53:44;96223.50;;;3.06;100.00
78210;BME280;67485;48.816;9.930;2024-01-07T01:56:10;96221.81;;;3.02;100.00
78210;BME280;67485;48.816;9.930;2024-01-07T01:58:36;96223.56;;;2.97;100.00
78210;BME280;67485;48.816;9.930;2024-01-07T02:01:03;96215.75;;;3.05;100.00
78210;BME280;67485;48.816;9.930;2024-01-07T02:03:29;96220.94;;;3.03;100.00
78210;BME280;67485;48.816;9.930;2024-01-07T02:05:58;96217.50;;;3.00;100.00
78210;BME280;67485;48.816;9.930;2024-01-07T02:08:25;96220.94;;;3.00;100.00
78210;BME280;67485;48.816;9.930;2024-01-07T02:10:50;96220.97;;;3.02;100.00
78210;BME280;67485;48.816;9.930;2024-01-07T02:13:16;96224.41;;;2.98;100.00
78210;BME280;67485;48.816;9.930;2024-01-07T02:15:43;96221.88;;;2.93;100.00
78210;BME280;67485;48.816;9.930;2024-01-07T02:18:09;96224.50;;;2.87;100.00
78210;BME280;67485;48.816;9.930;2024-01-07T02:20:34;96221.03;;;2.86;100.00
78210;BME280;67485;48.816;9.930;2024-01-07T02:23:02;96227.94;;;2.87;100.00
78210;BME280;67485;48.816;9.930;2024-01-07T02:25:28;96222.75;;;2.87;100.00
78210;BME280;67485;48.816;9.930;2024-01-07T02:27:53;96228.81;;;2.85;100.00
78210;BME280;67485;48.816;9.930;2024-01-07T02:30:19;96230.53;;;2.86;100.00
78210;BME280;67485;48.816;9.930;2024-01-07T02:32:44;96229.66;;;2.88;100.00
78210;BME280;67485;48.816;9.930;2024-01-07T02:35:10;96228.81;;;2.85;100.00
78210;BME280;67485;48.816;9.930;2024-01-07T02:37:36;96225.38;;;2.81;100.00
78210;BME280;67485;48.816;9.930;2024-01-07T02:40:02;96228.84;;;2.79;100.00
78210;BME280;67485;48.816;9.930;2024-01-07T02:42:27;96230.53;;;2.86;100.00
78210;BME280;67485;48.816;9.930;2024-01-07T02:44:53;96220.22;;;2.80;100.00
78210;BME280;67485;48.816;9.930;2024-01-07T02:47:19;96228.84;;;2.79;100.00
78210;BME280;67485;48.816;9.930;2024-01-07T02:49:44;96224.47;;;2.85;100.00
78210;BME280;67485;48.816;9.930;2024-01-07T02:52:10;96222.78;;;2.86;100.00
78210;BME280;67485;48.816;9.930;2024-01-07T02:54:35;96229.69;;;2.79;100.00
78210;BME280;67485;48.816;9.930;2024-01-07T02:57:01;96223.69;;;2.75;100.00
78210;BME280;67485;48.816;9.930;2024-01-07T02:59:27;96232.28;;;2.79;100.00
78210;BME280;67485;48.816;9.930;2024-01-07T03:01:53;96226.25;;;2.79;100.00
78210;BME280;67485;48.816;9.930;2024-01-07T03:04:18;96227.13;;;2.78;100.00
78210;BME280;67485;48.816;9.930;2024-01-07T03:06:44;96228.88;;;2.72;100.00
78210;BME280;67485;48.816;9.930;2024-01-07T03:09:09;96229.75;;;2.74;100.00
78210;BME280;67485;48.816;9.930;2024-01-07T03:11:41;96230.63;;;2.72;100.00
78210;BME280;67485;48.816;9.930;2024-01-07T03:14:07;96223.69;;;2.72;100.00
78210;BME280;67485;48.816;9.930;2024-01-07T03:16:33;96232.38;;;2.67;100.00
78210;BME280;67485;48.816;9.930;2024-01-07T03:18:58;96235.84;;;2.64;100.00
78210;BME280;67485;48.816;9.930;2024-01-07T03:21:24;96232.38;;;2.64;100.00
78210;BME280;67485;48.816;9.930;2024-01-07T03:23:50;96234.94;;;2.65;100.00
78210;BME280;67485;48.816;9.930;2024-01-07T03:26:17;96234.06;;;2.66;100.00
78210;BME280;67485;48.816;9.930;2024-01-07T03:28:44;96237.53;;;2.68;100.00
78210;BME280;67485;48.816;9.930;2024-01-07T03:31:11;96243.59;;;2.64;100.00
78210;BME280;67485;48.816;9.930;2024-01-07T03:33:38;96243.59;;;2.59;100.00
78210;BME280;67485;48.816;9.930;2024-01-07T03:36:08;96247.91;;;2.62;100.00
78210;BME280;67485;48.816;9.930;2024-01-07T03:38:34;96241.00;;;2.64;100.00
78210;BME280;67485;48.816;9.930;2024-01-07T03:41:00;96243.59;;;2.61;100.00
78210;BME280;67485;48.816;9.930;2024-01-07T03:43:26;96239.28;;;2.60;100.00
78210;BME280;67485;48.816;9.930;2024-01-07T03:45:51;96242.75;;;2.56;100.00
78210;BME280;67485;48.816;9.930;2024-01-07T03:48:17;96244.47;;;2.54;100.00
78210;BME280;67485;48.816;9.930;2024-01-07T03:50:42;96244.47;;;2.55;100.00
78210;BME280;67485;48.816;9.930;2024-01-07T03:53:09;96245.34;;;2.56;100.00
78210;BME280;67485;48.816;9.930;2024-01-07T03:55:34;96242.75;;;2.53;100.00
78210;BME280;67485;48.816;9.930;2024-01-07T03:58:00;96241.91;;;2.51;100.00
78210;BME280;67485;48.816;9.930;2024-01-07T04:00:26;96238.47;;;2.52;100.00
78210;BME280;67485;48.816;9.930;2024-01-07T04:02:51;96243.63;;;2.49;100.00
78210;BME280;67485;48.816;9.930;2024-01-07T04:05:17;96251.41;;;2.52;100.00
78210;BME280;67485;48.816;9.930;2024-01-07T04:07:42;96253.97;;;2.53;100.00
78210;BME280;67485;48.816;9.930;2024-01-07T04:10:08;96254.81;;;2.54;100.00
78210;BME280;67485;48.816;9.930;2024-01-07T04:12:34;96250.53;;;2.51;100.00
78210;BME280;67485;48.816;9.930;2024-01-07T04:15:00;96257.44;;;2.51;100.00
78210;BME280;67485;48.816;9.930;2024-01-07T04:17:25;96259.16;;;2.47;100.00
78210;BME280;67485;48.816;9.930;2024-01-07T04:19:52;96254.84;;;2.51;100.00
78210;BME280;67485;48.816;9.930;2024-01-07T04:22:18;96250.50;;;2.53;100.00
78210;BME280;67485;48.816;9.930;2024-01-07T04:24:43;96251.41;;;2.49;100.00
78210;BME280;67485;48.816;9.930;2024-01-07T04:27:09;96256.59;;;2.46;100.00
78210;BME280;67485;48.816;9.930;2024-01-07T04:29:35;96263.47;;;2.47;100.00
78210;BME280;67485;48.816;9.930;2024-01-07T04:32:01;96264.34;;;2.49;100.00
78210;BME280;67485;48.816;9.930;2024-01-07T04:34:26;96263.47;;;2.47;100.00
78210;BME280;67485;48.816;9.930;2024-01-07T04:36:52;96266.06;;;2.45;100.00
78210;BME280;67485;48.816;9.930;2024-01-07T04:39:18;96268.69;;;2.42;100.00
78210;BME280;67485;48.816;9.930;2024-01-07T04:41:43;96268.69;;;2.37;100.00
78210;BME280;67485;48.816;9.930;2024-01-07T04:44:09;96273.88;;;2.34;100.00
78210;BME280;67485;48.816;9.930;2024-01-07T04:46:38;96272.09;;;2.42;100.00
78210;BME280;67485;48.816;9.930;2024-01-07T04:49:04;96275.56;;;2.41;100.00
78210;BME280;67485;48.816;9.930;2024-01-07T04:51:31;96275.56;;;2.45;100.00
78210;BME280;67485;48.816;9.930;2024-01-07T04:53:57;96275.53;;;2.48;100.00
78210;BME280;67485;48.816;9.930;2024-01-07T04:56:22;96279.84;;;2.44;100.00
78210;BME280;67485;48.816;9.930;2024-01-07T04:58:48;96282.47;;;2.42;100.00
78210;BME280;67485;48.816;9.930;2024-01-07T05:01:14;96275.53;;;2.48;100.00
78210;BME280;67485;48.816;9.930;2024-01-07T05:03:40;96285.88;;;2.51;100.00
78210;BME280;67485;48.816;9.930;2024-01-07T05:06:08;96285.88;;;2.48;100.00
78210;BME280;67485;48.816;9.930;2024-01-07T05:08:34;96280.72;;;2.41;100.00
78210;BME280;67485;48.816;9.930;2024-01-07T05:10:59;96295.38;;;2.38;100.00
78210;BME280;67485;48.816;9.930;2024-01-07T05:13:25;96294.56;;;2.40;100.00
78210;BME280;67485;48.816;9.930;2024-01-07T05:15:50;96298.00;;;2.39;100.00
78210;BME280;67485;48.816;9.930;2024-01-07T05:18:22;96300.53;;;2.44;100.00
78210;BME280;67485;48.816;9.930;2024-01-07T05:20:49;96299.69;;;2.43;100.00
78210;BME280;67485;48.816;9.930;2024-01-07T05:23:14;96310.03;;;2.43;100.00
78210;BME280;67485;48.816;9.930;2024-01-07T05:25:42;96306.59;;;2.41;100.00
78210;BME280;67485;48.816;9.930;2024-01-07T05:28:08;96306.59;;;2.40;100.00
78210;BME280;67485;48.816;9.930;2024-01-07T05:30:33;96307.47;;;2.42;100.00
78210;BME280;67485;48.816;9.930;2024-01-07T05:32:59;96310.91;;;2.42;100.00
78210;BME280;67485;48.816;9.930;2024-01-07T05:35:24;96313.50;;;2.39;100.00
78210;BME280;67485;48.816;9.930;2024-01-07T05:37:50;96321.25;;;2.41;100.00
78210;BME280;67485;48.816;9.930;2024-01-07T05:40:16;96321.25;;;2.42;100.00
78210;BME280;67485;48.816;9.930;2024-01-07T05:42:41;96314.34;;;2.40;100.00
78210;BME280;67485;48.816;9.930;2024-01-07T05:45:07;96318.69;;;2.36;100.00
78210;BME280;67485;48.816;9.930;2024-01-07T05:47:33;96325.59;;;2.34;100.00
78210;BME280;67485;48.816;9.930;2024-01-07T05:49:59;96328.16;;;2.36;100.00
78210;BME280;67485;48.816;9.930;2024-01-07T05:52:24;96318.69;;;2.36;100.00
78210;BME280;67485;48.816;9.930;2024-01-07T05:54:50;96329.06;;;2.27;100.00
78210;BME280;67485;48.816;9.930;2024-01-07T05:57:16;96334.19;;;2.30;100.00
78210;BME280;67485;48.816;9.930;2024-01-07T05:59:43;96332.47;;;2.29;100.00
78210;BME280;67485;48.816;9.930;2024-01-07T06:02:09;96325.59;;;2.28;100.00
78210;BME280;67485;48.816;9.930;2024-01-07T06:04:37;96329.91;;;2.21;100.00
78210;BME280;67485;48.816;9.930;2024-01-07T06:07:02;96332.50;;;2.23;100.00
78210;BME280;67485;48.816;9.930;2024-01-07T06:09:28;96336.81;;;2.25;100.00
78210;BME280;67485;48.816;9.930;2024-01-07T06:11:54;96330.78;;;2.22;100.00
78210;BME280;67485;48.816;9.930;2024-01-07T06:14:20;96335.97;;;2.22;100.00
78210;BME280;67485;48.816;9.930;2024-01-07T06:16:46;96333.34;;;2.25;100.00
78210;BME280;67485;48.816;9.930;2024-01-07T06:19:11;96335.06;;;2.21;100.00
78210;BME280;67485;48.816;9.930;2024-01-07T06:21:37;96334.25;;;2.19;100.00
78210;BME280;67485;48.816;9.930;2024-01-07T06:24:02;96340.28;;;2.17;100.00
78210;BME280;67485;48.816;9.930;2024-01-07T06:26:28;96334.22;;;2.24;100.00
78210;BME280;67485;48.816;9.930;2024-01-07T06:28:54;96338.53;;;2.19;100.00
78210;BME280;67485;48.816;9.930;2024-01-07T06:31:19;96341.97;;;2.21;100.00
78210;BME280;67485;48.816;9.930;2024-01-07T06:33:45;96352.31;;;2.18;100.00
78210;BME280;67485;48.816;9.930;2024-01-07T06:36:10;96347.16;;;2.19;100.00
78210;BME280;67485;48.816;9.930;2024-01-07T06:38:36;96348.03;;;2.10;100.00
78210;BME280;67485;48.816;9.930;2024-01-07T06:41:02;96358.38;;;2.10;100.00
78210;BME280;67485;48.816;9.930;2024-01-07T06:43:30;96360.09;;;2.08;100.00
78210;BME280;67485;48.816;9.930;2024-01-07T06:45:55;96363.53;;;2.07;100.00
78210;BME280;67485;48.816;9.930;2024-01-07T06:48:21;96366.97;;;2.13;100.00
78210;BME280;67485;48.816;9.930;2024-01-07T06:50:47;96369.59;;;2.08;100.00
78210;BME280;67485;48.816;9.930;2024-01-07T06:53:12;96376.44;;;2.03;100.00
78210;BME280;67485;48.816;9.930;2024-01-07T06:55:39;96373.00;;;2.04;100.00
78210;BME280;67485;48.816;9.930;2024-01-07T06:58:04;96379.03;;;2.07;100.00
78210;BME280;67485;48.816;9.930;2024-01-07T07:00:30;96379.03;;;2.06;100.00
78210;BME280;67485;48.816;9.930;2024-01-07T07:02:56;96382.50;;;2.03;100.00
78210;BME280;67485;48.816;9.930;2024-01-07T07:05:21;96388.50;;;1.98;100.00
78210;BME280;67485;48.816;9.930;2024-01-07T07:07:47;96400.59;;;1.89;100.00
78210;BME280;67485;48.816;9.930;2024-01-07T07:10:12;96396.25;;;1.82;100.00
78210;BME280;67485;48.816;9.930;2024-01-07T07:12:38;96401.44;;;1.81;100.00
78210;BME280;67485;48.816;9.930;2024-01-07T07:15:04;96396.25;;;1.74;100.00
78210;BME280;67485;48.816;9.930;2024-01-07T07:17:30;96406.56;;;1.71;100.00
78210;BME280;67485;48.816;9.930;2024-01-07T07:19:55;96407.44;;;1.69;100.00
78210;BME280;67485;48.816;9.930;2024-01-07T07:22:21;96418.66;;;1.69;100.00
78210;BME280;67485;48.816;9.930;2024-01-07T07:24:46;96425.53;;;1.67;100.00
78210;BME280;67485;48.816;9.930;2024-01-07T07:27:12;96416.03;;;1.61;100.00
78210;BME280;67485;48.816;9.930;2024-01-07T07:29:38;96425.50;;;1.61;100.00
78210;BME280;67485;48.816;9.930;2024-01-07T07:32:03;96428.06;;;1.56;100.00
78210;BME280;67485;48.816;9.930;2024-01-07T07:34:29;96428.94;;;1.60;100.00
78210;BME280;67485;48.816;9.930;2024-01-07T07:36:55;96439.28;;;1.57;100.00
78210;BME280;67485;48.816;9.930;2024-01-07T07:39:21;96439.25;;;1.54;100.00
78210;BME280;67485;48.816;9.930;2024-01-07T07:41:46;96434.97;;;1.54;100.00
78210;BME280;67485;48.816;9.930;2024-01-07T07:44:13;96444.44;;;1.57;100.00
78210;BME280;67485;48.816;9.930;2024-01-07T07:46:39;96436.69;;;1.58;100.00
78210;BME280;67485;48.816;9.930;2024-01-07T07:49:04;96434.97;;;1.56;100.00
78210;BME280;67485;48.816;9.930;2024-01-07T07:51:30;96432.38;;;1.59;100.00
78210;BME280;67485;48.816;9.930;2024-01-07T07:53:56;96442.72;;;1.59;100.00
78210;BME280;67485;48.816;9.930;2024-01-07T07:56:22;96449.59;;;1.54;100.00
78210;BME280;67485;48.816;9.930;2024-01-07T07:58:48;96445.31;;;1.54;100.00
78210;BME280;67485;48.816;9.930;2024-01-07T08:01:14;96453.03;;;1.56;100.00
78210;BME280;67485;48.816;9.930;2024-01-07T08:03:39;96448.72;;;1.56;100.00
78210;BME280;67485;48.816;9.930;2024-01-07T08:06:05;96455.63;;;1.54;100.00
78210;BME280;67485;48.816;9.930;2024-01-07T08:08:31;96453.03;;;1.56;100.00
78210;BME280;67485;48.816;9.930;2024-01-07T08:10:57;96454.78;;;1.57;100.00
78210;BME280;67485;48.816;9.930;2024-01-07T08:13:23;96463.38;;;1.59;100.00
78210;BME280;67485;48.816;9.930;2024-01-07T08:15:48;96451.34;;;1.59;100.00
78210;BME280;67485;48.816;9.930;2024-01-07T08:18:14;96454.78;;;1.57;100.00
78210;BME280;67485;48.816;9.930;2024-01-07T08:20:40;96454.78;;;1.57;100.00
78210;BME280;67485;48.816;9.930;2024-01-07T08:23:05;96459.06;;;1.53;100.00
78210;BME280;67485;48.816;9.930;2024-01-07T08:25:31;96465.13;;;1.63;100.00
78210;BME280;67485;48.816;9.930;2024-01-07T08:27:57;96468.59;;;1.67;100.00
78210;BME280;67485;48.816;9.930;2024-01-07T08:30:23;96474.59;;;1.64;100.00
78210;BME280;67485;48.816;9.930;2024-01-07T08:32:49;96472.00;;;1.58;100.00
78210;BME280;67485;48.816;9.930;2024-01-07T08:35:14;96472.84;;;1.58;100.00
78210;BME280;67485;48.816;9.930;2024-01-07T08:37:40;96482.31;;;1.62;100.00
78210;BME280;67485;48.816;9.930;2024-01-07T08:40:06;96483.22;;;1.69;100.00
78210;BME280;67485;48.816;9.930;2024-01-07T08:42:35;96487.53;;;1.67;99.87
78210;BME280;67485;48.816;9.930;2024-01-07T08:45:01;96489.19;;;1.59;100.00
78210;BME280;67485;48.816;9.930;2024-01-07T08:47:29;96496.13;;;1.63;100.00
78210;BME280;67485;48.816;9.930;2024-01-07T08:49:57;96490.09;;;1.59;99.55
78210;BME280;67485;48.816;9.930;2024-01-07T08:52:23;96494.41;;;1.62;99.19
78210;BME280;67485;48.816;9.930;2024-01-07T08:54:49;96506.44;;;1.66;99.11
78210;BME280;67485;48.816;9.930;2024-01-07T08:57:15;96502.16;;;1.67;98.46
78210;BME280;67485;48.816;9.930;2024-01-07T08:59:40;96502.97;;;1.55;97.95
78210;BME280;67485;48.816;9.930;2024-01-07T09:02:06;96498.66;;;1.51;98.67
78210;BME280;67485;48.816;9.930;2024-01-07T09:04:31;96505.56;;;1.55;98.82
78210;BME280;67485;48.816;9.930;2024-01-07T09:06:59;96501.25;;;1.60;99.21
78210;BME280;67485;48.816;9.930;2024-01-07T09:09:24;96506.41;;;1.54;99.28
78210;BME280;67485;48.816;9.930;2024-01-07T09:11:52;96501.22;;;1.44;99.19
78210;BME280;67485;48.816;9.930;2024-01-07T09:14:17;96508.94;;;1.37;98.98
78210;BME280;67485;48.816;9.930;2024-01-07T09:16:43;96504.63;;;1.37;98.95
78210;BME280;67485;48.816;9.930;2024-01-07T09:19:09;96499.44;;;1.31;99.24
78210;BME280;67485;48.816;9.930;2024-01-07T09:21:34;96506.31;;;1.32;99.24
78210;BME280;67485;48.816;9.930;2024-01-07T09:24:00;96511.47;;;1.32;99.65
78210;BME280;67485;48.816;9.930;2024-01-07T09:26:26;96520.94;;;1.28;99.00
78210;BME280;67485;48.816;9.930;2024-01-07T09:28:51;96516.63;;;1.23;99.36
78210;BME280;67485;48.816;9.930;2024-01-07T09:50:07;96548.25;;;0.91;96.52
78210;BME280;67485;48.816;9.930;2024-01-07T09:52:35;96544.81;;;0.90;95.99
78210;BME280;67485;48.816;9.930;2024-01-07T09:55:03;96549.09;;;0.90;96.10
78210;BME280;67485;48.816;9.930;2024-01-07T09:57:29;96549.09;;;0.90;95.36
78210;BME280;67485;48.816;9.930;2024-01-07T09:59:55;96555.13;;;0.92;95.17
78210;BME280;67485;48.816;9.930;2024-01-07T10:02:21;96558.56;;;0.88;94.66
78210;BME280;67485;48.816;9.930;2024-01-07T10:04:50;96557.66;;;0.86;93.84
78210;BME280;67485;48.816;9.930;2024-01-07T10:07:16;96555.09;;;0.87;94.14
78210;BME280;67485;48.816;9.930;2024-01-07T10:09:43;96559.34;;;0.80;94.50
78210;BME280;67485;48.816;9.930;2024-01-07T10:12:08;96557.63;;;0.83;94.35
78210;BME280;67485;48.816;9.930;2024-01-07T10:14:35;96560.25;;;0.84;94.70
78210;BME280;67485;48.816;9.930;2024-01-07T10:17:00;96564.56;;;0.87;95.56
78210;BME280;67485;48.816;9.930;2024-01-07T10:19:26;96560.25;;;0.86;95.26
78210;BME280;67485;48.816;9.930;2024-01-07T10:22:03;96558.56;;;0.89;95.93
78210;BME280;67485;48.816;9.930;2024-01-07T10:24:36;96562.84;;;0.89;95.68
78210;BME280;67485;48.816;9.930;2024-01-07T10:27:06;96561.19;;;0.95;95.26
78210;BME280;67485;48.816;9.930;2024-01-07T10:29:32;96563.72;;;0.92;95.20
78210;BME280;67485;48.816;9.930;2024-01-07T10:31:59;96563.72;;;0.89;95.04
78210;BME280;67485;48.816;9.930;2024-01-07T10:34:31;96562.00;;;0.91;94.62
78210;BME280;67485;48.816;9.930;2024-01-07T10:36:58;96564.56;;;0.90;93.23
78210;BME280;67485;48.816;9.930;2024-01-07T10:39:24;96561.13;;;0.89;92.31
78210;BME280;67485;48.816;9.930;2024-01-07T10:41:51;96558.53;;;0.86;91.66
78210;BME280;67485;48.816;9.930;2024-01-07T10:44:23;96561.94;;;0.80;91.33
78210;BME280;67485;48.816;9.930;2024-01-07T10:46:48;96565.41;;;0.84;91.66
78210;BME280;67485;48.816;9.930;2024-01-07T10:49:22;96573.16;;;0.86;91.75
78210;BME280;67485;48.816;9.930;2024-01-07T10:52:01;96561.13;;;0.88;92.26
78210;BME280;67485;48.816;9.930;2024-01-07T10:54:29;96568.06;;;0.98;92.07
78210;BME280;67485;48.816;9.930;2024-01-07T10:56:58;96567.16;;;0.90;92.39
78210;BME280;67485;48.816;9.930;2024-01-07T10:59:26;96573.97;;;0.82;93.08
78210;BME280;67485;48.816;9.930;2024-01-07T11:01:53;96564.47;;;0.77;94.14
78210;BME280;67485;48.816;9.930;2024-01-07T11:04:42;96562.72;;;0.73;94.17
78210;BME280;67485;48.816;9.930;2024-01-07T11:12:56;96557.56;;;0.70;94.63
78210;BME280;67485;48.816;9.930;2024-01-07T11:18:22;96566.88;;;0.57;94.42
78210;BME280;67485;48.816;9.930;2024-01-07T11:20:48;96567.72;;;0.55;94.72
78210;BME280;67485;48.816;9.930;2024-01-07T11:23:43;96560.88;;;0.55;94.99
78210;BME280;67485;48.816;9.930;2024-01-07T11:26:08;96566.00;;;0.54;94.59
78210;BME280;67485;48.816;9.930;2024-01-07T11:31:12;96567.59;;;0.41;93.25
78210;BME280;67485;48.816;9.930;2024-01-07T11:33:39;96565.03;;;0.38;93.38
78210;BME280;67485;48.816;9.930;2024-01-07T11:36:06;96573.53;;;0.32;93.41
78210;BME280;67485;48.816;9.930;2024-01-07T11:38:35;96579.56;;;0.32;92.90
78210;BME280;67485;48.816;9.930;2024-01-07T11:41:05;96571.75;;;0.25;93.19
78210;BME280;67485;48.816;9.930;2024-01-07T11:43:31;96574.38;;;0.28;92.87
78210;BME280;67485;48.816;9.930;2024-01-07T11:45:59;96581.25;;;0.29;92.82
78210;BME280;67485;48.816;9.930;2024-01-07T11:48:25;96582.13;;;0.29;93.28
78210;BME280;67485;48.816;9.930;2024-01-07T11:50:51;96577.84;;;0.33;93.26
78210;BME280;67485;48.816;9.930;2024-01-07T11:53:16;96577.84;;;0.33;93.36
78210;BME280;67485;48.816;9.930;2024-01-07T11:55:42;96580.38;;;0.27;93.58
78210;BME280;67485;48.816;9.930;2024-01-07T11:58:08;96579.47;;;0.22;93.92
78210;BME280;67485;48.816;9.930;2024-01-07T12:00:34;96586.34;;;0.24;94.14
78210;BME280;67485;48.816;9.930;2024-01-07T12:03:00;96582.88;;;0.21;94.05
78210;BME280;67485;48.816;9.930;2024-01-07T12:05:30;96587.97;;;0.11;93.97
78210;BME280;67485;48.816;9.930;2024-01-07T12:07:56;96593.97;;;0.12;93.84
78210;BME280;67485;48.816;9.930;2024-01-07T12:10:25;96592.22;;;0.09;94.01
78210;BME280;67485;48.816;9.930;2024-01-07T12:12:51;96594.72;;;0.00;93.32
78210;BME280;67485;48.816;9.930;2024-01-07T12:15:17;96588.59;;;-0.07;93.43
78210;BME280;67485;48.816;9.930;2024-01-07T12:17:55;96599.81;;;-0.03;93.45
78210;BME280;67485;48.816;9.930;2024-01-07T12:20:21;96598.06;;;-0.07;93.95
78210;BME280;67485;48.816;9.930;2024-01-07T12:22:47;96599.72;;;-0.09;94.17
78210;BME280;67485;48.816;9.930;2024-01-07T12:25:13;96604.94;;;-0.06;94.75
78210;BME280;67485;48.816;9.930;2024-01-07T12:27:41;96611.78;;;-0.05;95.27
78210;BME280;67485;48.816;9.930;2024-01-07T12:30:07;96606.56;;;-0.11;95.61
78210;BME280;67485;48.816;9.930;2024-01-07T12:32:32;96606.50;;;-0.18;95.43
78210;BME280;67485;48.816;9.930;2024-01-07T12:34:58;96609.91;;;-0.20;95.29
78210;BME280;67485;48.816;9.930;2024-01-07T12:37:27;96613.34;;;-0.20;95.43
78210;BME280;67485;48.816;9.930;2024-01-07T12:39:54;96619.31;;;-0.24;95.68
78210;BME280;67485;48.816;9.930;2024-01-07T12:42:19;96614.13;;;-0.25;96.20
78210;BME280;67485;48.816;9.930;2024-01-07T12:44:49;96612.47;;;-0.22;95.80
78210;BME280;67485;48.816;9.930;2024-01-07T12:47:15;96613.34;;;-0.20;96.17
78210;BME280;67485;48.816;9.930;2024-01-07T12:49:41;96615.03;;;-0.22;96.18
78210;BME280;67485;48.816;9.930;2024-01-07T12:52:06;96618.28;;;-0.35;95.71
78210;BME280;67485;48.816;9.930;2024-01-07T12:54:32;96620.94;;;-0.30;95.89
78210;BME280;67485;48.816;9.930;2024-01-07T12:56:59;96621.75;;;-0.33;95.56
78210;BME280;67485;48.816;9.930;2024-01-07T12:59:25;96618.19;;;-0.44;95.46
78210;BME280;67485;48.816;9.930;2024-01-07T13:01:51;96624.25;;;-0.41;95.96
78210;BME280;67485;48.816;9.930;2024-01-07T13:04:18;96625.91;;;-0.44;96.57
78210;BME280;67485;48.816;9.930;2024-01-07T13:06:44;96630.16;;;-0.46;96.29
78210;BME280;67485;48.816;9.930;2024-01-07T13:09:11;96637.88;;;-0.46;96.72
78210;BME280;67485;48.816;9.930;2024-01-07T13:11:37;96629.19;;;-0.56;96.01
78210;BME280;67485;48.816;9.930;2024-01-07T13:14:03;96640.38;;;-0.53;96.45
78210;BME280;67485;48.816;9.930;2024-01-07T13:16:28;96638.66;;;-0.54;96.34
78210;BME280;67485;48.816;9.930;2024-01-07T13:18:55;96637.84;;;-0.51;96.16
78210;BME280;67485;48.816;9.930;2024-01-07T13:21:21;96635.28;;;-0.50;96.34
78210;BME280;67485;48.816;9.930;2024-01-07T13:23:47;96642.19;;;-0.47;95.99
78210;BME280;67485;48.816;9.930;2024-01-07T13:26:16;96642.19;;;-0.45;95.85
78210;BME280;67485;48.816;9.930;2024-01-07T13:28:41;96643.84;;;-0.51;95.48